HTAR

Arusha Airport

Arusha, Tanzania
METAR HTAR 092100Z 31004KT 9999 SCT022 18/17 Q1019 NOSIG
Observed Flight Rules
Dec-9 @ 21:00 UTC (39 minutes ago) Visual Flight Rules
Wind Visibility Clouds
310° at 4 knots 10,000+ meters
  • Scattered at 2,200' AGL
Temperatures Readings
Current 18°C / 64°F
Dewpoint 17°C / 63°F
Humidity 94%
Altimeter 30.09" Hg
Pressure 1019 hPa
Elevation 1387
METAR HTAR 092100Z 31004KT 9999 SCT022 18/17 Q1019 NOSIG
Observed Flight Rules
Dec-9 @ 21:00 UTC
(39 minutes ago)
VFR
Wind Visibility
310° at 4 knots 10,000+ meters
Clouds
  • Scattered at 2,200' AGL
Temperature Dewpoint
18°C / 64°F 17°C / 63°F
Humidity Altimeter Pressure
94% 30.09" Hg 1019 hPa